createdAt,value
2022-09-10T00:01:07.172Z,14.50
2022-09-10T00:03:38.634Z,14.70
2022-09-10T00:06:11.397Z,15.00
2022-09-10T00:08:43.989Z,15.20
2022-09-10T00:11:18.409Z,15.90
2022-09-10T00:13:50.260Z,15.00
2022-09-10T00:16:22.762Z,15.00
2022-09-10T00:18:56.796Z,15.90
2022-09-10T00:21:27.799Z,15.50
2022-09-10T00:23:59.527Z,16.80
2022-09-10T00:26:31.674Z,16.60
2022-09-10T00:29:03.966Z,16.70
2022-09-10T00:31:38.134Z,16.40
2022-09-10T00:34:12.844Z,16.90
2022-09-10T00:36:44.617Z,17.00
2022-09-10T00:39:19.049Z,16.60
2022-09-10T00:41:50.231Z,17.40
2022-09-10T00:44:39.755Z,17.80
2022-09-10T00:47:13.645Z,17.30
2022-09-10T00:49:46.474Z,17.60
2022-09-10T00:52:17.880Z,17.30
2022-09-10T00:54:49.106Z,17.20
2022-09-10T00:57:22.162Z,17.80
2022-09-10T00:59:55.067Z,17.90
2022-09-10T01:02:27.570Z,17.40
2022-09-10T01:05:00.785Z,17.50
2022-09-10T01:07:35.003Z,18.40
2022-09-10T01:10:08.898Z,18.90
2022-09-10T01:12:44.779Z,19.30
2022-09-10T01:15:25.256Z,19.10
2022-09-10T01:18:03.641Z,19.20
2022-09-10T01:20:44.560Z,17.80
2022-09-10T01:23:41.570Z,18.20
2022-09-10T01:26:18.498Z,17.40
2022-09-10T01:28:54.086Z,16.00
2022-09-10T01:31:27.826Z,12.70
2022-09-10T01:34:02.273Z,11.20
2022-09-10T01:36:36.831Z,10.60
2022-09-10T01:39:09.738Z,10.00
2022-09-10T01:41:40.210Z,10.00
2022-09-10T01:44:13.325Z,9.50
2022-09-10T01:46:52.671Z,10.90
2022-09-10T01:49:30.739Z,10.80
2022-09-10T01:52:14.026Z,11.50
2022-09-10T01:54:50.066Z,10.90
2022-09-10T01:57:28.043Z,9.80
2022-09-10T02:00:05.950Z,10.30
2022-09-10T02:02:42.129Z,9.00
2022-09-10T02:05:14.347Z,7.20
2022-09-10T02:07:48.161Z,6.90
2022-09-10T02:10:20.668Z,6.10
2022-09-10T02:12:51.422Z,6.10
2022-09-10T02:15:23.469Z,6.60
2022-09-10T02:17:55.948Z,6.40
2022-09-10T02:20:30.449Z,6.00
2022-09-10T02:23:01.181Z,5.00
2022-09-10T02:25:34.810Z,5.70
2022-09-10T02:28:06.567Z,6.00
2022-09-10T02:30:37.505Z,8.00
2022-09-10T02:33:08.777Z,7.30
2022-09-10T02:35:42.170Z,7.70
2022-09-10T02:38:15.269Z,7.50
2022-09-10T02:40:51.785Z,7.20
2022-09-10T02:43:23.560Z,7.50
2022-09-10T02:45:58.609Z,7.30
2022-09-10T02:48:31.128Z,7.20
2022-09-10T02:51:02.916Z,7.40
2022-09-10T02:53:33.718Z,7.70
2022-09-10T02:56:09.008Z,7.60
2022-09-10T02:58:39.801Z,7.70
2022-09-10T03:01:15.000Z,7.60
2022-09-10T03:03:50.152Z,7.20
2022-09-10T03:06:22.989Z,7.60
2022-09-10T03:08:57.871Z,7.60
2022-09-10T03:11:29.495Z,7.60
2022-09-10T03:14:00.771Z,8.00
2022-09-10T03:16:36.376Z,7.30
2022-09-10T03:19:10.104Z,8.20
2022-09-10T03:21:42.860Z,8.80
2022-09-10T03:24:15.799Z,9.60
2022-09-10T03:26:48.194Z,9.40
2022-09-10T03:29:20.979Z,8.60
2022-09-10T03:31:52.351Z,7.60
2022-09-10T03:34:24.128Z,7.90
2022-09-10T03:36:55.146Z,7.80
2022-09-10T03:39:27.085Z,7.80
2022-09-10T03:41:59.709Z,8.30
2022-09-10T03:44:29.917Z,7.40
2022-09-10T03:47:02.583Z,6.00
2022-09-10T03:49:34.167Z,5.60
2022-09-10T03:52:05.407Z,6.20
2022-09-10T03:54:37.987Z,5.60
2022-09-10T03:57:09.212Z,5.60
2022-09-10T03:59:42.199Z,5.90
2022-09-10T04:02:14.851Z,5.50
2022-09-10T04:04:46.355Z,5.90
2022-09-10T04:07:19.854Z,6.10
2022-09-10T04:09:51.281Z,6.60
2022-09-10T04:12:23.475Z,6.10
2022-09-10T04:14:55.210Z,6.30
2022-09-10T04:17:28.835Z,6.60
2022-09-10T04:20:01.002Z,6.20
2022-09-10T04:22:31.539Z,6.30
2022-09-10T04:25:03.464Z,6.30
2022-09-10T04:27:34.552Z,6.20
2022-09-10T04:30:06.853Z,6.30
2022-09-10T04:32:38.505Z,6.40
2022-09-10T04:35:10.441Z,6.50
2022-09-10T04:37:42.118Z,6.50
2022-09-10T04:40:13.966Z,6.50
2022-09-10T04:42:46.711Z,6.50
2022-09-10T04:45:16.908Z,7.10
2022-09-10T04:47:48.049Z,8.20
2022-09-10T04:50:20.233Z,7.50
2022-09-10T04:52:54.509Z,8.50
2022-09-10T04:55:27.140Z,9.70
2022-09-10T04:58:00.773Z,13.10
2022-09-10T05:00:33.674Z,14.70
2022-09-10T05:03:05.957Z,16.10
2022-09-10T05:05:38.832Z,11.10
2022-09-10T05:08:10.656Z,10.00
2022-09-10T05:10:41.401Z,9.40
2022-09-10T05:13:11.793Z,10.00
2022-09-10T05:15:44.356Z,10.40
2022-09-10T05:18:16.058Z,10.70
2022-09-10T05:20:48.041Z,9.20
2022-09-10T05:23:20.967Z,9.20
2022-09-10T05:25:52.161Z,8.70
2022-09-10T05:28:23.702Z,9.10
2022-09-10T05:30:55.363Z,9.40
2022-09-10T05:33:28.928Z,10.20
2022-09-10T05:35:59.527Z,9.20
2022-09-10T05:38:31.505Z,7.90
2022-09-10T05:41:06.192Z,7.00
2022-09-10T05:43:38.248Z,7.00
2022-09-10T05:46:11.790Z,7.40
2022-09-10T05:49:13.139Z,7.60
2022-09-10T05:51:49.242Z,7.90
2022-09-10T05:55:11.703Z,15.50
2022-09-10T05:57:43.947Z,8.80
2022-09-10T06:00:27.015Z,9.30
2022-09-10T06:03:03.187Z,10.30
2022-09-10T06:06:03.837Z,10.80
2022-09-10T06:11:57.706Z,9.70
2022-09-10T06:14:36.223Z,10.60
2022-09-10T06:17:11.471Z,10.90
2022-09-10T06:19:54.905Z,10.30
2022-09-10T06:25:45.376Z,9.40
2022-09-10T06:28:18.669Z,9.10
2022-09-10T06:31:14.348Z,10.40
2022-09-10T06:34:18.936Z,11.70
2022-09-10T06:41:29.149Z,10.40
2022-09-10T06:44:29.226Z,8.40
2022-09-10T06:50:04.456Z,6.00
2022-09-10T06:52:45.180Z,4.60
2022-09-10T06:55:16.364Z,5.20
2022-09-10T07:01:15.108Z,4.90
2022-09-10T07:03:50.869Z,4.40
2022-09-10T07:09:35.806Z,4.10
2022-09-10T07:12:11.657Z,3.60
2022-09-10T07:18:04.073Z,11.50
2022-09-10T07:21:00.273Z,7.50
2022-09-10T07:24:05.341Z,15.10
2022-09-10T07:27:03.460Z,4.00
2022-09-10T07:29:38.566Z,3.80
2022-09-10T07:32:13.696Z,4.10
2022-09-10T07:34:51.101Z,4.00
2022-09-10T07:37:22.695Z,4.40
2022-09-10T07:39:55.857Z,4.20
2022-09-10T07:42:32.494Z,4.10
2022-09-10T07:45:36.377Z,4.30
2022-09-10T07:48:11.938Z,4.30
2022-09-10T07:50:49.205Z,4.40
2022-09-10T07:57:07.485Z,4.70
2022-09-10T07:59:50.884Z,6.30
2022-09-10T08:02:50.615Z,7.40
2022-09-10T08:05:21.194Z,8.00
2022-09-10T08:07:55.426Z,6.70
2022-09-10T08:10:27.308Z,6.50
2022-09-10T08:12:59.692Z,6.60
2022-09-10T08:15:37.326Z,7.50
2022-09-10T08:21:35.919Z,6.10
2022-09-10T08:24:14.890Z,5.50
2022-09-10T08:26:48.446Z,5.00
2022-09-10T08:29:24.776Z,4.40
2022-09-10T08:32:00.426Z,5.30
2022-09-10T08:34:58.870Z,4.70
2022-09-10T08:37:36.036Z,4.90
2022-09-10T08:43:07.860Z,4.60
2022-09-10T08:45:43.373Z,5.20
2022-09-10T08:51:53.495Z,4.80
2022-09-10T08:54:33.758Z,5.30
2022-09-10T09:00:46.656Z,5.20
2022-09-10T09:03:22.383Z,5.30
2022-09-10T09:06:23.301Z,5.40
2022-09-10T09:08:58.212Z,5.50
2022-09-10T09:11:40.632Z,5.60
2022-09-10T09:18:11.964Z,6.20
2022-09-10T09:25:14.018Z,5.10
2022-09-10T09:27:47.833Z,4.70
2022-09-10T09:37:13.494Z,4.30
2022-09-10T09:43:40.662Z,4.10
2022-09-10T09:46:20.680Z,4.00
2022-09-10T09:49:22.325Z,3.80
2022-09-10T09:51:55.269Z,3.90
2022-09-10T09:55:12.742Z,3.90
2022-09-10T09:57:20.817Z,3.90
2022-09-10T09:59:53.302Z,4.10
2022-09-10T10:02:25.173Z,3.30
2022-09-10T10:04:58.261Z,3.30
2022-09-10T10:07:31.785Z,3.80
2022-09-10T10:10:04.050Z,3.30
2022-09-10T10:12:40.540Z,3.30
2022-09-10T10:15:32.958Z,3.80
2022-09-10T10:18:24.139Z,3.70
2022-09-10T10:21:13.485Z,3.40
2022-09-10T10:23:46.663Z,3.10
2022-09-10T10:26:31.435Z,4.50
2022-09-10T10:29:06.372Z,3.60
2022-09-10T10:31:39.677Z,3.50
2022-09-10T10:34:31.493Z,4.00
2022-09-10T10:37:10.085Z,3.70
2022-09-10T10:39:48.813Z,3.10
2022-09-10T10:42:26.231Z,3.40
2022-09-10T10:45:06.180Z,3.30
2022-09-10T10:47:43.343Z,3.20
2022-09-10T10:50:23.532Z,3.20
2022-09-10T10:53:09.095Z,3.20
2022-09-10T10:55:43.090Z,3.10
2022-09-10T10:58:36.317Z,2.70
2022-09-10T11:01:13.664Z,2.50
2022-09-10T11:03:50.962Z,2.20
2022-09-10T11:06:24.538Z,2.40
2022-09-10T11:08:57.722Z,2.10
2022-09-10T11:11:31.751Z,2.60
2022-09-10T11:14:20.992Z,3.10
2022-09-10T11:16:58.758Z,2.90
2022-09-10T11:19:40.064Z,3.60
2022-09-10T11:22:15.587Z,5.20
2022-09-10T11:24:49.969Z,4.10
2022-09-10T11:27:25.718Z,4.10
2022-09-10T11:29:58.896Z,4.10
2022-09-10T11:32:34.743Z,3.70
2022-09-10T11:35:08.655Z,4.00
2022-09-10T11:37:46.112Z,3.80
2022-09-10T11:40:22.387Z,4.10
2022-09-10T11:42:57.659Z,3.40
2022-09-10T11:45:33.538Z,3.20
2022-09-10T11:48:14.931Z,3.60
2022-09-10T11:50:50.996Z,3.70
2022-09-10T11:53:23.413Z,3.50
2022-09-10T11:56:21.922Z,3.40
2022-09-10T11:58:56.064Z,3.20
2022-09-10T12:01:34.316Z,3.70
2022-09-10T12:04:13.241Z,3.30
2022-09-10T12:06:55.367Z,3.40
2022-09-10T12:09:31.233Z,3.60
2022-09-10T12:12:07.951Z,3.60
2022-09-10T12:14:39.953Z,3.70
2022-09-10T12:17:16.897Z,4.00
2022-09-10T12:19:51.571Z,3.10
2022-09-10T12:22:30.402Z,2.80
2022-09-10T12:25:08.387Z,2.90
2022-09-10T12:27:59.369Z,2.80
2022-09-10T12:34:26.867Z,3.00
2022-09-10T12:37:15.059Z,2.60
2022-09-10T12:39:47.563Z,2.40
2022-09-10T12:42:30.046Z,3.20
2022-09-10T12:45:04.485Z,2.50
2022-09-10T12:47:40.662Z,2.40
2022-09-10T12:50:23.316Z,2.90
2022-09-10T12:53:05.814Z,2.90
2022-09-10T12:55:44.480Z,2.60
2022-09-10T12:58:23.602Z,2.70
2022-09-10T13:01:06.123Z,2.70
2022-09-10T13:03:39.890Z,2.50
2022-09-10T13:06:12.039Z,2.80
2022-09-10T13:08:47.776Z,2.60
2022-09-10T13:11:20.858Z,2.30
2022-09-10T13:14:01.249Z,2.30
2022-09-10T13:16:40.497Z,2.50
2022-09-10T13:19:25.471Z,2.40
2022-09-10T13:21:57.833Z,2.70
2022-09-10T13:24:53.921Z,2.60
2022-09-10T13:27:38.121Z,2.70
2022-09-10T13:30:21.982Z,3.10
2022-09-10T13:32:55.284Z,3.40
2022-09-10T13:35:45.952Z,3.20
2022-09-10T13:38:29.611Z,2.70
2022-09-10T13:41:10.381Z,2.50
2022-09-10T13:44:16.124Z,2.90
2022-09-10T13:47:21.177Z,2.60
2022-09-10T13:50:20.061Z,2.70
2022-09-10T13:53:00.336Z,2.60
2022-09-10T13:55:59.209Z,2.00
2022-09-10T14:01:54.170Z,1.80
2022-09-10T14:04:27.776Z,1.80
2022-09-10T14:07:03.468Z,1.70
2022-09-10T14:09:35.688Z,1.70
2022-09-10T14:12:13.894Z,1.80
2022-09-10T14:14:53.739Z,1.80
2022-09-10T14:17:49.245Z,1.70
2022-09-10T14:20:45.361Z,1.60
2022-09-10T14:23:44.163Z,1.60
2022-09-10T14:29:49.488Z,1.70
2022-09-10T14:32:59.089Z,2.00
2022-09-10T14:36:07.040Z,1.90
2022-09-10T14:39:12.841Z,2.10
2022-09-10T14:45:27.721Z,2.10
2022-09-10T14:48:03.043Z,2.60
2022-09-10T14:50:36.854Z,2.60
2022-09-10T14:53:10.281Z,2.60
2022-09-10T14:55:43.372Z,2.70
2022-09-10T14:58:38.973Z,2.80
2022-09-10T15:01:12.534Z,2.70
2022-09-10T15:03:51.008Z,2.30
2022-09-10T15:06:26.597Z,2.60
2022-09-10T15:09:07.040Z,3.40
2022-09-10T15:11:40.604Z,3.50
2022-09-10T15:14:41.028Z,2.60
2022-09-10T15:20:24.726Z,3.50
2022-09-10T15:23:31.902Z,3.10
2022-09-10T15:29:04.618Z,2.70
2022-09-10T15:32:14.329Z,2.90
2022-09-10T15:35:40.303Z,3.00
2022-09-10T15:38:43.398Z,3.10
2022-09-10T15:41:19.500Z,2.70
2022-09-10T15:44:43.330Z,3.50
2022-09-10T15:47:18.157Z,3.00
2022-09-10T15:49:56.854Z,3.90
2022-09-10T15:52:58.327Z,4.40
2022-09-10T15:55:36.491Z,3.30
2022-09-10T15:58:41.226Z,3.00
2022-09-10T16:01:33.343Z,3.20
2022-09-10T16:07:27.698Z,3.00
2022-09-10T16:10:33.437Z,3.00
2022-09-10T16:13:31.819Z,3.30
2022-09-10T16:19:18.428Z,3.50
2022-09-10T16:25:42.419Z,2.50
2022-09-10T16:28:38.482Z,2.10
2022-09-10T16:32:03.710Z,2.10
2022-09-10T16:35:00.128Z,2.00
2022-09-10T16:37:41.584Z,2.20
2022-09-10T16:40:25.323Z,2.00
2022-09-10T16:43:52.634Z,2.10
2022-09-10T16:50:11.842Z,2.20
2022-09-10T16:52:51.766Z,2.50
2022-09-10T16:55:26.271Z,2.50
2022-09-10T16:58:24.233Z,3.20
2022-09-10T17:01:00.969Z,3.30
2022-09-10T17:04:28.557Z,3.30
2022-09-10T17:07:26.625Z,4.00
2022-09-10T17:12:58.612Z,3.90
2022-09-10T17:15:31.263Z,2.90
2022-09-10T17:18:05.776Z,3.30
2022-09-10T17:21:07.005Z,3.50
2022-09-10T17:23:47.306Z,2.90
2022-09-10T17:26:21.902Z,2.80
2022-09-10T17:29:40.366Z,3.40
2022-09-10T17:32:18.244Z,3.20
2022-09-10T17:34:54.099Z,3.70
2022-09-10T17:37:39.482Z,4.10
2022-09-10T17:44:10.473Z,4.70
2022-09-10T17:47:14.989Z,5.30
2022-09-10T17:49:54.169Z,5.50
2022-09-10T17:52:56.395Z,6.50
2022-09-10T17:56:01.183Z,6.80
2022-09-10T17:58:39.358Z,6.60
2022-09-10T18:01:29.701Z,5.90
2022-09-10T18:04:16.567Z,5.10
2022-09-10T18:06:52.729Z,5.60
2022-09-10T18:09:28.927Z,5.40
2022-09-10T18:12:15.524Z,5.60
2022-09-10T18:14:53.557Z,6.10
2022-09-10T18:20:45.669Z,6.40
2022-09-10T18:26:53.125Z,7.40
2022-09-10T18:29:33.750Z,7.50
2022-09-10T18:35:36.893Z,8.40
2022-09-10T18:38:16.618Z,8.70
2022-09-10T18:41:20.546Z,9.10
2022-09-10T18:44:04.663Z,10.00
2022-09-10T18:47:43.723Z,10.40
2022-09-10T19:01:13.283Z,12.00
2022-09-10T19:03:59.571Z,10.30
2022-09-10T19:07:05.018Z,11.00
2022-09-10T19:10:18.760Z,11.00
2022-09-10T19:12:58.751Z,11.10
2022-09-10T19:15:45.858Z,11.40
2022-09-10T19:18:48.443Z,11.70
2022-09-10T19:21:44.744Z,11.30
2022-09-10T19:24:58.701Z,13.30
2022-09-10T19:27:59.670Z,12.50
2022-09-10T19:31:01.821Z,14.10
2022-09-10T19:33:46.371Z,12.70
2022-09-10T19:40:16.800Z,13.10
2022-09-10T19:43:16.476Z,14.50
2022-09-10T19:45:54.058Z,13.70
2022-09-10T19:52:28.020Z,13.80
2022-09-10T19:55:09.065Z,14.00
2022-09-10T19:58:08.533Z,13.90
2022-09-10T20:00:53.111Z,15.10
2022-09-10T20:18:08.309Z,13.80
2022-09-10T20:21:15.438Z,15.10
2022-09-10T20:27:42.425Z,13.80
2022-09-10T20:30:42.816Z,12.90
2022-09-10T20:33:16.973Z,12.20
2022-09-10T20:36:19.815Z,11.80
2022-09-10T20:43:13.381Z,11.40
2022-09-10T20:45:50.504Z,14.20
2022-09-10T20:49:11.238Z,19.60
2022-09-10T20:52:34.779Z,17.70
2022-09-10T20:55:33.404Z,15.80
2022-09-10T20:58:09.137Z,15.10
2022-09-10T21:04:33.669Z,23.50
2022-09-10T21:07:09.406Z,22.00
2022-09-10T21:10:12.717Z,23.00
2022-09-10T21:13:10.563Z,20.30
2022-09-10T21:16:17.221Z,27.00
2022-09-10T21:19:24.330Z,26.80
2022-09-10T21:28:17.628Z,15.80
2022-09-10T21:31:18.407Z,15.20
2022-09-10T21:34:03.134Z,15.30
2022-09-10T21:37:01.904Z,16.30
2022-09-10T21:39:35.999Z,15.00
2022-09-10T21:42:56.749Z,14.70
2022-09-10T21:45:54.542Z,13.30
2022-09-10T21:48:29.140Z,13.10
2022-09-10T21:51:56.810Z,13.40
2022-09-10T21:54:34.692Z,13.50
2022-09-10T21:57:11.017Z,13.70
2022-09-10T22:00:12.544Z,14.10
2022-09-10T22:03:15.328Z,13.90
2022-09-10T22:06:40.789Z,13.20
2022-09-10T22:10:00.457Z,13.10
2022-09-10T22:13:01.375Z,14.30
2022-09-10T22:16:27.160Z,14.40
2022-09-10T22:19:27.436Z,14.10
2022-09-10T22:22:27.181Z,15.20
2022-09-10T22:25:27.465Z,15.20
2022-09-10T22:27:59.477Z,15.60
2022-09-10T22:33:41.363Z,15.40
2022-09-10T22:36:42.485Z,15.60
2022-09-10T22:39:43.371Z,14.60
2022-09-10T22:42:46.998Z,14.70
2022-09-10T22:45:25.867Z,13.80
2022-09-10T22:48:01.050Z,14.40
2022-09-10T22:51:02.562Z,14.80
2022-09-10T22:53:43.428Z,14.10
2022-09-10T22:56:43.120Z,13.20
2022-09-10T22:59:45.438Z,13.60
2022-09-10T23:02:25.860Z,13.80
2022-09-10T23:05:01.613Z,13.00
2022-09-10T23:07:41.518Z,12.50
2022-09-10T23:10:19.407Z,12.30
2022-09-10T23:16:00.162Z,11.30
2022-09-10T23:31:39.603Z,11.40
2022-09-10T23:34:15.100Z,10.90
2022-09-10T23:37:18.715Z,11.30
2022-09-10T23:40:16.423Z,11.20
2022-09-10T23:43:18.194Z,11.10
2022-09-10T23:46:41.571Z,11.30
2022-09-10T23:49:22.437Z,11.10
2022-09-10T23:52:00.955Z,11.30
2022-09-10T23:54:42.538Z,11.40
2022-09-10T23:57:18.586Z,11.10
